Time;durP1;ratioP1;P1;durP2;ratioP2;P2;SDS_P1;SDS_P2;PMS_P1;PMS_P2;Temp;Humidity;BMP_temperature;BMP_pressure;BME280_temperature;BME280_humidity;BME280_pressure;Samples;Min_cycle;Max_cycle;Signal;HPM_P1;HPM_P2
2021/12/27 00:00:58;;;;;;;16.37;10.10;;;7.20;99.90;;;;;;4955481;28;20467;-67
2021/12/27 00:03:23;;;;;;;11.60;10.40;;;7.20;99.90;;;;;;4957027;28;20264;-67
2021/12/27 00:05:49;;;;;;;13.60;10.57;;;7.20;99.90;;;;;;4956679;28;20902;-67
2021/12/27 00:08:14;;;;;;;13.73;10.37;;;7.30;99.90;;;;;;4956916;28;20169;-66
2021/12/27 00:10:40;;;;;;;15.10;11.53;;;7.30;99.90;;;;;;4956867;28;20173;-68
2021/12/27 00:13:07;;;;;;;15.73;11.83;;;7.20;99.90;;;;;;4956829;28;20532;-66
2021/12/27 00:15:33;;;;;;;14.27;11.37;;;7.20;99.90;;;;;;4956039;28;20173;-67
2021/12/27 00:17:59;;;;;;;14.43;11.57;;;7.20;99.90;;;;;;4956726;28;20471;-67
2021/12/27 00:20:25;;;;;;;14.63;12.73;;;7.20;99.90;;;;;;4956622;28;20487;-67
2021/12/27 00:22:52;;;;;;;15.57;13.30;;;7.20;99.90;;;;;;4956671;28;20231;-66
2021/12/27 00:25:18;;;;;;;15.10;12.23;;;7.10;99.90;;;;;;4956356;28;20781;-67
2021/12/27 00:27:44;;;;;;;16.67;13.10;;;7.10;99.90;;;;;;4956533;28;20232;-67
2021/12/27 00:30:11;;;;;;;17.20;12.67;;;7.10;99.90;;;;;;4956526;28;20858;-67
2021/12/27 00:32:37;;;;;;;17.47;12.83;;;7.10;99.90;;;;;;4956456;28;20423;-67
2021/12/27 00:35:07;;;;;;;15.83;13.63;;;7.00;99.90;;;;;;4956222;28;20922;-67
2021/12/27 00:37:34;;;;;;;15.90;12.63;;;7.00;99.90;;;;;;4956448;28;20448;-66
2021/12/27 00:39:59;;;;;;;17.80;12.73;;;7.00;99.90;;;;;;4956384;28;20458;-67
2021/12/27 00:42:24;;;;;;;17.20;13.47;;;7.00;99.90;;;;;;4956122;28;20520;-67
2021/12/27 00:44:50;;;;;;;21.00;15.90;;;7.00;99.90;;;;;;4956295;28;20228;-67
2021/12/27 00:47:15;;;;;;;19.53;13.47;;;7.00;99.90;;;;;;4956061;28;20670;-67
2021/12/27 00:49:41;;;;;;;19.50;14.50;;;7.00;99.90;;;;;;4956129;28;20204;-67
2021/12/27 00:52:07;;;;;;;21.43;13.10;;;7.00;99.90;;;;;;4956231;28;20663;-67
2021/12/27 00:54:33;;;;;;;18.80;14.57;;;7.00;99.90;;;;;;4956195;28;20544;-67
2021/12/27 00:56:59;;;;;;;17.20;14.27;;;7.00;99.90;;;;;;4955795;28;20854;-67
2021/12/27 00:59:25;;;;;;;17.77;12.97;;;7.00;99.90;;;;;;4955929;28;20564;-67
2021/12/27 01:01:50;;;;;;;15.20;12.90;;;7.00;99.90;;;;;;4955973;28;20173;-67
2021/12/27 01:04:16;;;;;;;19.23;13.60;;;7.00;99.90;;;;;;4955891;28;20227;-67
2021/12/27 01:06:42;;;;;;;18.73;13.87;;;7.00;99.90;;;;;;4955771;28;20184;-68
2021/12/27 01:09:07;;;;;;;19.00;13.90;;;7.00;99.90;;;;;;4955878;28;20197;-67
2021/12/27 01:11:56;;;;;;;17.30;13.70;;;6.90;99.90;;;;;;4955243;28;20236;-67
2021/12/27 01:14:38;;;;;;;17.00;13.10;;;6.90;99.90;;;;;;4955823;28;20158;-67
2021/12/27 01:17:04;;;;;;;18.90;13.57;;;6.90;99.90;;;;;;4955572;28;20431;-67
2021/12/27 01:19:29;;;;;;;27.90;15.73;;;6.80;99.90;;;;;;4955459;28;20464;-67
2021/12/27 01:21:55;;;;;;;17.93;12.87;;;6.80;99.90;;;;;;4955624;28;20539;-67
2021/12/27 01:24:20;;;;;;;16.30;13.00;;;6.80;99.90;;;;;;4955448;28;20197;-67
2021/12/27 01:26:46;;;;;;;18.53;13.27;;;6.70;99.90;;;;;;4955124;28;20177;-67
2021/12/27 01:29:12;;;;;;;16.10;12.80;;;6.70;99.90;;;;;;4955440;28;20589;-67
2021/12/27 01:31:37;;;;;;;17.10;12.53;;;6.70;99.90;;;;;;4955446;28;20705;-67
2021/12/27 01:34:03;;;;;;;19.50;14.07;;;6.70;99.90;;;;;;4955371;28;20701;-67
2021/12/27 01:36:32;;;;;;;17.30;12.77;;;6.70;99.90;;;;;;4955091;28;20627;-66
2021/12/27 01:38:58;;;;;;;18.77;12.87;;;6.70;99.90;;;;;;4955180;28;20213;-67
2021/12/27 01:41:24;;;;;;;19.00;13.37;;;6.60;99.90;;;;;;4955270;28;20789;-68
2021/12/27 01:43:49;;;;;;;19.00;13.10;;;6.60;99.90;;;;;;4955198;28;20464;-67
2021/12/27 01:46:18;;;;;;;17.40;13.73;;;6.50;99.90;;;;;;4954924;28;20173;-66
2021/12/27 01:48:48;;;;;;;17.00;13.00;;;6.50;99.90;;;;;;4954971;28;20197;-67
2021/12/27 01:51:16;;;;;;;15.60;11.53;;;6.50;99.90;;;;;;4955171;28;20421;-66
2021/12/27 01:53:44;;;;;;;19.43;13.30;;;6.40;99.90;;;;;;4954899;28;20420;-67
2021/12/27 01:56:12;;;;;;;16.57;12.87;;;6.30;99.90;;;;;;4954673;28;20420;-67
2021/12/27 01:58:39;;;;;;;16.57;13.30;;;6.30;99.90;;;;;;4954890;28;20530;-67
2021/12/27 02:01:09;;;;;;;16.40;12.60;;;6.30;99.90;;;;;;4954990;28;20424;-67
2021/12/27 02:03:36;;;;;;;19.00;12.83;;;6.30;99.90;;;;;;4954863;28;20460;-67
2021/12/27 02:06:02;;;;;;;15.60;12.40;;;6.30;99.90;;;;;;4954391;28;20460;-67
2021/12/27 02:08:28;;;;;;;17.73;12.30;;;6.30;99.90;;;;;;4954670;28;20857;-66
2021/12/27 02:10:54;;;;;;;15.33;11.50;;;6.30;99.90;;;;;;4954712;28;20443;-67
2021/12/27 02:13:20;;;;;;;18.73;12.70;;;6.30;99.90;;;;;;4954760;28;20471;-66
2021/12/27 02:15:46;;;;;;;18.00;12.77;;;6.30;99.90;;;;;;4954409;28;20173;-66
2021/12/27 02:18:12;;;;;;;17.60;13.03;;;6.30;99.90;;;;;;4954431;28;20496;-66
2021/12/27 02:20:40;;;;;;;17.40;12.57;;;6.30;99.90;;;;;;4954523;28;20929;-67
2021/12/27 02:23:15;;;;;;;16.27;12.50;;;6.30;99.90;;;;;;4953747;28;20475;-67
2021/12/27 02:25:41;;;;;;;17.30;12.43;;;6.30;99.90;;;;;;4954246;28;20419;-66
2021/12/27 02:28:08;;;;;;;14.97;11.37;;;6.20;99.90;;;;;;4954415;28;20794;-67
2021/12/27 02:30:35;;;;;;;15.00;10.53;;;6.20;99.90;;;;;;4954402;28;20520;-67
2021/12/27 02:33:05;;;;;;;14.53;11.77;;;6.20;99.90;;;;;;4954410;28;20425;-66
2021/12/27 02:35:34;;;;;;;16.50;12.40;;;6.20;99.90;;;;;;4953939;28;20930;-67
2021/12/27 02:38:01;;;;;;;12.30;9.03;;;6.20;99.90;;;;;;4954294;28;20433;-67
2021/12/27 02:40:29;;;;;;;19.70;10.93;;;6.20;99.90;;;;;;4954228;28;20421;-67
2021/12/27 02:42:58;;;;;;;14.70;10.60;;;6.30;99.90;;;;;;4954209;28;20460;-67
2021/12/27 02:45:26;;;;;;;18.03;11.23;;;6.30;99.90;;;;;;4953941;28;20851;-66
2021/12/27 02:47:52;;;;;;;15.37;11.07;;;6.30;99.90;;;;;;4954227;28;20800;-67
2021/12/27 02:50:18;;;;;;;12.30;10.27;;;6.20;99.90;;;;;;4954115;28;20930;-66
2021/12/27 02:52:45;;;;;;;13.30;10.40;;;6.20;99.90;;;;;;4954101;28;20461;-67
2021/12/27 02:55:12;;;;;;;15.30;11.07;;;6.20;99.90;;;;;;4953738;28;20424;-67
2021/12/27 02:57:39;;;;;;;12.47;9.53;;;6.20;99.90;;;;;;4953979;28;20428;-68
2021/12/27 03:00:05;;;;;;;15.10;9.53;;;6.20;99.90;;;;;;4953973;28;20451;-67
2021/12/27 03:02:30;;;;;;;12.63;9.37;;;6.20;99.90;;;;;;4953859;28;20412;-67
2021/12/27 03:04:56;;;;;;;12.30;9.03;;;6.20;99.90;;;;;;4953810;28;20539;-66
2021/12/27 03:07:21;;;;;;;14.73;9.50;;;6.20;99.90;;;;;;4953783;28;20188;-67
2021/12/27 03:09:47;;;;;;;11.17;8.87;;;6.20;99.90;;;;;;4954066;28;20193;-66
2021/12/27 03:12:13;;;;;;;13.83;8.93;;;6.30;99.90;;;;;;4953929;28;20531;-67
2021/12/27 03:14:39;;;;;;;12.17;10.03;;;6.30;99.90;;;;;;4953985;28;20177;-66
2021/12/27 03:17:04;;;;;;;14.53;9.17;;;6.30;99.90;;;;;;4953554;28;20173;-66
2021/12/27 03:19:30;;;;;;;10.57;8.60;;;6.30;99.90;;;;;;4953689;28;20487;-67
2021/12/27 03:21:55;;;;;;;11.10;9.60;;;6.30;99.90;;;;;;4953774;28;20185;-67
2021/12/27 03:24:22;;;;;;;12.03;9.10;;;6.30;99.90;;;;;;4953808;28;20209;-67
2021/12/27 03:26:48;;;;;;;11.80;9.17;;;6.30;99.90;;;;;;4953534;28;20669;-66
2021/12/27 03:29:14;;;;;;;12.20;9.97;;;6.40;99.90;;;;;;4954050;28;20949;-67
2021/12/27 03:31:40;;;;;;;11.77;8.70;;;6.40;99.90;;;;;;4953766;28;20421;-67
2021/12/27 03:34:06;;;;;;;10.63;8.10;;;6.40;99.90;;;;;;4954594;28;20180;-66
2021/12/27 03:36:38;;;;;;;11.67;9.70;;;6.40;99.90;;;;;;4957308;28;20424;-66
2021/12/27 03:39:07;;;;;;;10.00;8.40;;;6.40;99.90;;;;;;4957460;28;20193;-67
2021/12/27 03:41:33;;;;;;;11.60;8.57;;;6.40;99.90;;;;;;4957454;28;20421;-66
2021/12/27 03:43:59;;;;;;;10.90;8.10;;;6.40;99.90;;;;;;4957361;28;20456;-66
2021/12/27 03:46:24;;;;;;;11.30;8.60;;;6.40;99.90;;;;;;4957044;28;20449;-66
2021/12/27 03:48:50;;;;;;;8.97;8.03;;;6.40;99.90;;;;;;4957276;28;20200;-66
2021/12/27 03:51:15;;;;;;;10.50;7.90;;;6.50;99.90;;;;;;4957356;28;20183;-67
2021/12/27 03:53:41;;;;;;;10.50;7.10;;;6.50;99.90;;;;;;4957218;28;20181;-66
2021/12/27 03:56:08;;;;;;;7.63;6.63;;;6.50;99.90;;;;;;4956931;28;20664;-66
2021/12/27 03:58:46;;;;;;;7.87;6.50;;;6.50;99.90;;;;;;4957048;28;20256;-68
2021/12/27 04:01:17;;;;;;;7.87;6.97;;;6.40;99.90;;;;;;4957325;28;20515;-66
2021/12/27 04:03:45;;;;;;;8.80;7.57;;;6.40;99.90;;;;;;4957102;28;20539;-67
2021/12/27 04:06:12;;;;;;;8.53;6.70;;;6.40;99.90;;;;;;4956680;28;20443;-67
2021/12/27 04:08:38;;;;;;;7.37;6.67;;;6.40;99.90;;;;;;4956746;28;20523;-67
2021/12/27 04:11:04;;;;;;;9.07;6.20;;;6.40;99.90;;;;;;4956824;28;20515;-67
2021/12/27 04:13:29;;;;;;;7.20;6.10;;;6.40;99.90;;;;;;4957004;28;20181;-67
2021/12/27 04:15:55;;;;;;;7.70;6.67;;;6.40;99.90;;;;;;4956600;28;20169;-67
2021/12/27 04:20:59;;;;;;;6.70;5.97;;;6.30;99.90;;;;;;5012266;28;20701;-66
2021/12/27 04:23:25;;;;;;;5.10;4.53;;;6.30;99.90;;;;;;5015091;28;20462;-67
2021/12/27 04:25:51;;;;;;;7.67;5.60;;;6.30;99.90;;;;;;5014754;28;20193;-66
2021/12/27 04:28:17;;;;;;;6.93;5.70;;;6.30;99.90;;;;;;5014947;28;20505;-67
2021/12/27 04:30:43;;;;;;;6.07;5.27;;;6.30;99.90;;;;;;4995892;28;20206;-67
2021/12/27 04:33:08;;;;;;;6.27;5.40;;;6.30;99.90;;;;;;4995235;28;20251;-66
2021/12/27 04:35:35;;;;;;;6.60;5.07;;;6.30;99.90;;;;;;4994924;28;20886;-67
2021/12/27 04:38:01;;;;;;;5.10;4.60;;;6.30;99.90;;;;;;4995192;28;20238;-67
2021/12/27 04:40:32;;;;;;;6.37;4.77;;;6.30;99.90;;;;;;4995058;28;20449;-66
2021/12/27 04:43:08;;;;;;;4.63;4.23;;;6.30;99.90;;;;;;4994927;28;20458;-67
2021/12/27 04:45:34;;;;;;;5.53;4.50;;;6.40;99.90;;;;;;4994033;28;20805;-67
2021/12/27 04:48:01;;;;;;;8.50;5.13;;;6.40;99.90;;;;;;4994932;28;20441;-67
2021/12/27 04:50:27;;;;;;;4.43;4.03;;;6.40;99.90;;;;;;4994865;28;20203;-67
2021/12/27 04:52:53;;;;;;;5.43;4.90;;;6.40;99.90;;;;;;4994882;28;20430;-67
2021/12/27 04:55:23;;;;;;;4.97;4.50;;;6.40;99.90;;;;;;4994589;28;20415;-67
2021/12/27 04:57:49;;;;;;;6.03;4.57;;;6.40;99.90;;;;;;4994836;28;20427;-67
2021/12/27 05:00:15;;;;;;;5.63;3.90;;;6.50;99.90;;;;;;5009720;28;20447;-66
2021/12/27 05:02:41;;;;;;;4.70;4.30;;;6.50;99.90;;;;;;4994681;28;20223;-67
2021/12/27 05:05:07;;;;;;;4.47;3.93;;;6.50;99.90;;;;;;4994380;28;20454;-67
2021/12/27 05:07:32;;;;;;;5.00;4.27;;;6.50;99.90;;;;;;4994661;28;20279;-67
2021/12/27 05:09:58;;;;;;;4.07;3.57;;;6.50;99.90;;;;;;4994617;28;20199;-67
2021/12/27 05:12:24;;;;;;;5.33;3.57;;;6.50;99.90;;;;;;4994536;28;20178;-67
2021/12/27 05:14:49;;;;;;;5.10;4.60;;;6.60;99.90;;;;;;4994519;28;20250;-67
2021/12/27 05:17:15;;;;;;;5.37;4.50;;;6.60;99.90;;;;;;4994248;28;20481;-67
2021/12/27 05:19:41;;;;;;;6.87;4.47;;;6.60;99.90;;;;;;4994267;28;20612;-66
2021/12/27 05:22:06;;;;;;;4.30;3.90;;;6.60;99.90;;;;;;4994286;28;20794;-66
2021/12/27 05:24:32;;;;;;;4.47;4.07;;;6.60;99.90;;;;;;4994345;28;20211;-67
2021/12/27 05:26:57;;;;;;;4.50;4.10;;;6.70;99.90;;;;;;4993993;28;20175;-67
2021/12/27 05:29:23;;;;;;;5.87;4.80;;;6.70;99.90;;;;;;4994154;28;20191;-66
2021/12/27 05:31:49;;;;;;;4.90;4.50;;;6.80;99.90;;;;;;4994175;28;20183;-66
2021/12/27 05:34:16;;;;;;;4.53;4.10;;;6.80;99.90;;;;;;4994144;28;20208;-67
2021/12/27 05:36:43;;;;;;;5.23;4.40;;;6.80;99.90;;;;;;4993780;28;20959;-67
2021/12/27 05:39:10;;;;;;;6.53;4.40;;;6.90;99.90;;;;;;4993982;28;20927;-67
2021/12/27 05:41:36;;;;;;;4.00;3.70;;;6.90;99.90;;;;;;4993971;28;20449;-67
2021/12/27 05:44:02;;;;;;;4.93;4.53;;;6.90;99.90;;;;;;4993844;28;20447;-67
2021/12/27 05:46:27;;;;;;;5.40;4.90;;;6.90;99.90;;;;;;4993674;28;20179;-67
2021/12/27 05:48:53;;;;;;;5.33;4.83;;;6.90;99.90;;;;;;4993780;28;20527;-67
2021/12/27 05:51:18;;;;;;;4.23;3.83;;;6.90;99.90;;;;;;4993735;28;20556;-67
2021/12/27 05:53:44;;;;;;;4.87;4.37;;;6.90;99.90;;;;;;4993897;28;20296;-67
2021/12/27 05:56:09;;;;;;;6.90;4.50;;;6.90;99.90;;;;;;4993403;28;20250;-67
2021/12/27 05:58:35;;;;;;;5.20;4.50;;;6.90;99.90;;;;;;4993580;28;20183;-67
2021/12/27 06:01:00;;;;;;;4.80;4.40;;;6.80;99.90;;;;;;4993591;28;20183;-67
2021/12/27 06:03:26;;;;;;;4.50;4.10;;;6.70;99.90;;;;;;4993694;28;20231;-67
2021/12/27 06:05:52;;;;;;;7.60;5.70;;;6.60;99.90;;;;;;4993224;28;20270;-67
2021/12/27 06:08:17;;;;;;;5.77;5.13;;;6.50;99.90;;;;;;4993589;28;20207;-66
2021/12/27 06:10:43;;;;;;;6.30;5.60;;;6.40;99.90;;;;;;4993414;28;20568;-67
2021/12/27 06:13:08;;;;;;;6.07;5.30;;;6.30;99.90;;;;;;4993430;28;20175;-67
2021/12/27 06:15:34;;;;;;;7.57;6.67;;;6.20;99.90;;;;;;4993126;28;20267;-66
2021/12/27 06:17:59;;;;;;;8.47;5.07;;;6.20;99.90;;;;;;4993370;28;20641;-66
2021/12/27 06:20:25;;;;;;;6.67;6.07;;;6.10;99.90;;;;;;4993110;28;20298;-67
2021/12/27 06:22:56;;;;;;;8.60;6.03;;;6.00;99.90;;;;;;4993255;28;20649;-66
2021/12/27 06:25:23;;;;;;;6.60;5.50;;;6.00;99.90;;;;;;4992989;28;20201;-67
2021/12/27 06:27:48;;;;;;;6.70;6.00;;;6.00;99.90;;;;;;4993158;28;20419;-66
2021/12/27 06:30:16;;;;;;;6.73;5.97;;;5.90;99.90;;;;;;4993315;28;20443;-66
2021/12/27 06:32:43;;;;;;;7.27;6.67;;;5.90;99.90;;;;;;4993124;28;20426;-67
2021/12/27 06:35:11;;;;;;;6.63;6.03;;;5.90;99.90;;;;;;4992798;28;20506;-66
2021/12/27 06:37:38;;;;;;;10.50;6.20;;;5.90;99.90;;;;;;4992938;28;20497;-67
2021/12/27 06:40:04;;;;;;;6.37;5.70;;;5.80;99.90;;;;;;4992907;28;20501;-66
2021/12/27 06:42:30;;;;;;;5.80;5.20;;;5.80;99.90;;;;;;4992836;28;20427;-66
2021/12/27 06:44:55;;;;;;;8.20;6.77;;;5.80;99.90;;;;;;4992872;28;20930;-66
2021/12/27 06:47:22;;;;;;;9.03;6.57;;;5.70;99.90;;;;;;4992904;28;20172;-67
2021/12/27 06:49:48;;;;;;;7.90;6.13;;;5.70;99.90;;;;;;4992788;28;20218;-66
2021/12/27 06:52:14;;;;;;;6.40;5.53;;;5.70;99.90;;;;;;4992793;28;20465;-66
2021/12/27 06:54:40;;;;;;;6.60;6.00;;;5.70;99.90;;;;;;4992803;28;20431;-66
2021/12/27 06:57:07;;;;;;;7.77;6.13;;;5.60;99.90;;;;;;4992425;28;20430;-66
2021/12/27 06:59:32;;;;;;;8.10;6.40;;;5.60;99.90;;;;;;4992644;28;20966;-66
2021/12/27 07:01:58;;;;;;;8.73;6.73;;;5.60;99.90;;;;;;4992736;28;20511;-67
2021/12/27 07:04:24;;;;;;;8.13;5.77;;;5.50;99.90;;;;;;4992627;28;20211;-66
2021/12/27 07:06:49;;;;;;;8.17;7.10;;;5.50;99.90;;;;;;4992398;28;20621;-66
2021/12/27 07:09:15;;;;;;;8.43;7.43;;;5.50;99.90;;;;;;4995171;28;20215;-66
2021/12/27 07:11:41;;;;;;;8.33;6.57;;;5.50;99.90;;;;;;4999094;28;20179;-66
2021/12/27 07:14:07;;;;;;;7.93;7.20;;;5.40;99.90;;;;;;4999192;28;20187;-66
2021/12/27 07:16:32;;;;;;;10.27;6.20;;;5.40;99.90;;;;;;4998903;28;20422;-67
2021/12/27 07:18:58;;;;;;;8.00;6.50;;;5.40;99.90;;;;;;4998991;28;20206;-67
2021/12/27 07:21:23;;;;;;;7.20;6.50;;;5.40;99.90;;;;;;4999059;28;20179;-66
2021/12/27 07:23:49;;;;;;;9.63;6.57;;;5.40;99.90;;;;;;4998929;28;20282;-66
2021/12/27 07:26:15;;;;;;;9.00;7.43;;;5.40;99.90;;;;;;4998634;28;20176;-66
2021/12/27 07:28:41;;;;;;;8.37;6.53;;;5.40;99.90;;;;;;4998950;28;20183;-67
2021/12/27 07:31:07;;;;;;;8.20;6.27;;;5.40;99.90;;;;;;4998974;28;20167;-67
2021/12/27 07:33:33;;;;;;;7.20;6.37;;;5.40;99.90;;;;;;4998928;28;20434;-66
2021/12/27 07:35:59;;;;;;;8.77;7.00;;;5.50;99.90;;;;;;4998630;28;20473;-66
2021/12/27 07:38:24;;;;;;;7.50;6.80;;;5.50;99.90;;;;;;4998857;28;20927;-66
2021/12/27 07:40:50;;;;;;;7.73;5.57;;;5.60;99.90;;;;;;4998815;28;20679;-66
2021/12/27 07:43:15;;;;;;;7.40;5.90;;;5.60;99.90;;;;;;4998812;28;20879;-67
2021/12/27 07:45:41;;;;;;;8.00;7.03;;;5.70;99.90;;;;;;4998598;28;20168;-66
2021/12/27 07:48:09;;;;;;;8.13;7.33;;;5.70;99.90;;;;;;4998797;28;20203;-66
2021/12/27 07:50:35;;;;;;;7.97;6.20;;;5.70;99.90;;;;;;4998705;28;20187;-66
2021/12/27 07:53:01;;;;;;;8.83;7.47;;;6.00;99.90;;;;;;4998834;28;20426;-67
2021/12/27 07:55:28;;;;;;;7.10;6.20;;;6.40;99.90;;;;;;4998492;28;20833;-67
2021/12/27 07:57:55;;;;;;;5.90;5.30;;;6.90;99.90;;;;;;4998686;28;20419;-67
2021/12/27 08:00:20;;;;;;;5.47;4.90;;;7.40;99.90;;;;;;4998648;28;20799;-67
2021/12/27 08:02:46;;;;;;;5.00;4.60;;;7.80;99.90;;;;;;4998604;28;20600;-67
2021/12/27 08:05:12;;;;;;;5.63;5.07;;;8.10;99.90;;;;;;4998465;28;20175;-67
2021/12/27 08:07:37;;;;;;;5.10;4.13;;;8.40;99.90;;;;;;4998645;28;20168;-67
2021/12/27 08:10:04;;;;;;;5.80;5.30;;;8.50;99.90;;;;;;4998528;28;20192;-66
2021/12/27 08:12:30;;;;;;;4.23;3.90;;;8.70;99.90;;;;;;4998640;28;20247;-67
2021/12/27 08:14:55;;;;;;;5.27;4.77;;;8.90;99.90;;;;;;4998486;28;20438;-66
2021/12/27 08:17:21;;;;;;;5.30;4.80;;;9.40;99.90;;;;;;4998325;28;20180;-67
2021/12/27 08:19:47;;;;;;;4.87;4.47;;;9.40;99.90;;;;;;4998194;28;20219;-67
2021/12/27 08:22:13;;;;;;;4.17;3.77;;;9.60;99.90;;;;;;4994349;28;20453;-67
2021/12/27 08:24:38;;;;;;;6.57;4.50;;;9.80;99.90;;;;;;4995342;28;20241;-67
2021/12/27 08:27:05;;;;;;;5.50;5.00;;;10.10;99.90;;;;;;4995435;28;20603;-66
2021/12/27 08:29:30;;;;;;;4.60;4.20;;;10.00;99.90;;;;;;4995421;28;20584;-66
2021/12/27 08:31:56;;;;;;;5.77;4.40;;;10.00;99.90;;;;;;4995256;28;20426;-67
2021/12/27 08:34:22;;;;;;;5.23;4.37;;;10.00;99.90;;;;;;4995220;28;20672;-67
2021/12/27 08:36:47;;;;;;;5.53;5.03;;;10.00;99.90;;;;;;4994972;28;20561;-67
2021/12/27 08:39:14;;;;;;;6.37;5.30;;;10.10;99.90;;;;;;4995087;28;20206;-67
2021/12/27 08:41:39;;;;;;;4.97;4.47;;;10.10;99.90;;;;;;4995147;28;20183;-66
2021/12/27 08:44:05;;;;;;;6.60;5.17;;;10.30;99.90;;;;;;4995231;28;20471;-66
2021/12/27 08:46:34;;;;;;;5.47;4.97;;;10.40;99.90;;;;;;4994750;28;20172;-66
2021/12/27 08:49:00;;;;;;;5.97;5.47;;;10.60;99.90;;;;;;4995003;28;20221;-67
2021/12/27 08:51:25;;;;;;;5.30;4.70;;;10.80;99.90;;;;;;4994948;28;20455;-67
2021/12/27 08:53:52;;;;;;;4.10;3.80;;;11.00;99.90;;;;;;4994862;28;20509;-67
2021/12/27 08:56:18;;;;;;;5.37;4.97;;;11.10;99.90;;;;;;4994609;28;20171;-67
2021/12/27 08:58:44;;;;;;;5.87;5.27;;;10.80;99.90;;;;;;4994755;28;20449;-67
2021/12/27 09:01:10;;;;;;;5.40;4.93;;;10.80;99.90;;;;;;4994782;28;20183;-67
2021/12/27 09:03:36;;;;;;;4.63;4.30;;;11.40;99.90;;;;;;4994689;28;20530;-67
2021/12/27 09:06:03;;;;;;;7.57;6.80;;;11.80;99.90;;;;;;4994425;28;20963;-67
2021/12/27 09:08:29;;;;;;;8.80;7.90;;;12.40;99.90;;;;;;4994572;28;20174;-67
2021/12/27 09:10:57;;;;;;;4.90;4.50;;;13.40;99.90;;;;;;4994641;28;20434;-67
2021/12/27 09:13:25;;;;;;;4.67;4.27;;;13.30;99.90;;;;;;4994572;28;20426;-67
2021/12/27 09:15:51;;;;;;;5.10;4.60;;;13.20;99.90;;;;;;4994189;28;20426;-67
2021/12/27 09:18:16;;;;;;;5.87;5.23;;;13.00;99.90;;;;;;4994454;28;20938;-67
2021/12/27 09:20:42;;;;;;;6.17;5.67;;;13.00;99.90;;;;;;4994160;28;20211;-67
2021/12/27 09:23:08;;;;;;;7.20;6.53;;;13.20;99.90;;;;;;4994311;28;20203;-67
2021/12/27 09:25:33;;;;;;;6.80;6.20;;;13.30;99.90;;;;;;4994032;28;20168;-67
2021/12/27 09:27:59;;;;;;;5.60;5.10;;;12.80;99.90;;;;;;4994334;28;20468;-67
2021/12/27 09:30:25;;;;;;;5.57;5.00;;;12.40;99.90;;;;;;4994159;28;20191;-66
2021/12/27 09:32:50;;;;;;;6.00;5.43;;;12.30;99.90;;;;;;4993903;28;20638;-67
2021/12/27 09:35:16;;;;;;;5.90;5.40;;;12.90;99.90;;;;;;4993774;28;20179;-67
2021/12/27 09:37:42;;;;;;;5.80;5.30;;;12.90;99.90;;;;;;4993985;28;20215;-67
2021/12/27 09:40:08;;;;;;;4.67;4.17;;;13.60;99.90;;;;;;4993978;28;20435;-67
2021/12/27 09:42:35;;;;;;;5.90;5.30;;;13.90;99.90;;;;;;4993953;28;20609;-67
2021/12/27 09:45:01;;;;;;;5.13;4.70;;;14.00;99.90;;;;;;4993664;28;20473;-66
2021/12/27 09:47:27;;;;;;;5.80;5.20;;;13.20;99.90;;;;;;4993892;28;20485;-67
2021/12/27 09:49:53;;;;;;;4.47;4.07;;;13.70;99.90;;;;;;4993815;28;20806;-66
2021/12/27 09:52:18;;;;;;;4.90;4.50;;;12.70;99.90;;;;;;4993853;28;20179;-67
2021/12/27 09:54:46;;;;;;;5.47;4.77;;;11.90;99.90;;;;;;4993755;28;20782;-66
2021/12/27 09:57:12;;;;;;;6.23;5.63;;;11.00;99.90;;;;;;4993426;28;20188;-66
2021/12/27 09:59:37;;;;;;;6.43;5.83;;;10.80;99.90;;;;;;4993587;28;20982;-66
2021/12/27 10:02:03;;;;;;;5.13;4.63;;;10.30;99.90;;;;;;4993638;28;20684;-66
2021/12/27 10:04:29;;;;;;;5.23;4.70;;;10.00;99.90;;;;;;4993473;28;20227;-66
2021/12/27 10:06:55;;;;;;;4.47;4.07;;;10.60;99.90;;;;;;4993240;28;20645;-67
2021/12/27 10:09:21;;;;;;;4.93;4.50;;;11.90;99.90;;;;;;4993444;28;20738;-67
2021/12/27 10:11:47;;;;;;;4.87;4.40;;;13.00;99.90;;;;;;4993375;28;20415;-67
2021/12/27 10:14:17;;;;;;;4.20;3.90;;;15.10;99.90;;;;;;4993400;28;20668;-68
2021/12/27 10:17:10;;;;;;;3.80;3.50;;;17.50;99.90;;;;;;4993120;28;20801;-67
2021/12/27 10:19:37;;;;;;;3.43;3.20;;;17.50;99.90;;;;;;5021805;23;21046;-68
2021/12/27 10:22:08;;;;;;;5.03;3.80;;;16.90;99.90;;;;;;5004586;28;20502;-67
2021/12/27 10:24:34;;;;;;;3.93;3.57;;;16.60;99.90;;;;;;5012880;28;20652;-67
2021/12/27 10:27:01;;;;;;;4.20;3.40;;;17.10;99.90;;;;;;5012523;28;20422;-67
2021/12/27 10:29:39;;;;;;;4.87;3.90;;;17.90;99.90;;;;;;5005730;28;20201;-68
2021/12/27 10:32:09;;;;;;;3.70;3.40;;;18.30;99.90;;;;;;4993336;28;20415;-67
2021/12/27 10:34:39;;;;;;;3.33;3.03;;;19.30;99.90;;;;;;4993142;28;20506;-67
2021/12/27 10:37:10;;;;;;;3.40;3.20;;;19.40;99.80;;;;;;4992804;28;20422;-68
2021/12/27 10:39:56;;;;;;;4.70;3.60;;;19.50;98.70;;;;;;4992903;28;20888;-67
2021/12/27 10:42:29;;;;;;;3.27;2.97;;;19.40;98.20;;;;;;4993010;28;20418;-67
2021/12/27 10:45:01;;;;;;;3.83;3.40;;;18.70;98.70;;;;;;4992092;28;20473;-67
2021/12/27 10:47:51;;;;;;;3.43;3.13;;;18.80;99.00;;;;;;4992882;28;20423;-68
2021/12/27 10:50:22;;;;;;;3.20;2.90;;;19.00;98.30;;;;;;4992714;28;20453;-68
2021/12/27 10:52:56;;;;;;;3.27;2.97;;;18.60;98.40;;;;;;4991665;28;20433;-67
2021/12/27 10:55:30;;;;;;;3.03;2.70;;;18.10;98.90;;;;;;4992581;28;20850;-67
2021/12/27 10:58:12;;;;;;;2.67;2.47;;;18.80;98.40;;;;;;4992734;28;20422;-68
2021/12/27 11:00:39;;;;;;;3.63;3.33;;;18.90;97.50;;;;;;4992633;28;20446;-68
2021/12/27 11:03:04;;;;;;;2.70;2.57;;;19.80;97.40;;;;;;4992678;28;20545;-68
2021/12/27 11:05:32;;;;;;;3.60;3.30;;;18.90;97.00;;;;;;4992323;28;20569;-67
2021/12/27 11:08:03;;;;;;;3.37;3.17;;;17.70;98.50;;;;;;4992657;28;20191;-68
2021/12/27 11:10:33;;;;;;;2.70;2.50;;;17.20;99.90;;;;;;4992624;28;20438;-67
2021/12/27 11:12:59;;;;;;;4.10;3.80;;;18.20;99.40;;;;;;4992389;28;20422;-69
2021/12/27 11:15:34;;;;;;;3.20;2.93;;;18.70;98.40;;;;;;4992388;28;20821;-67
2021/12/27 11:18:00;;;;;;;3.33;3.03;;;19.90;97.60;;;;;;4992681;28;20423;-68
2021/12/27 11:20:27;;;;;;;4.20;3.90;;;20.40;96.40;;;;;;4992385;28;20549;-67
2021/12/27 11:22:58;;;;;;;3.20;2.90;;;19.10;96.50;;;;;;4992509;28;20549;-67
2021/12/27 11:25:32;;;;;;;3.83;3.50;;;18.50;97.70;;;;;;4992228;28;20435;-67
2021/12/27 11:28:00;;;;;;;2.77;2.57;;;17.40;99.10;;;;;;4992417;28;20418;-67
2021/12/27 11:30:30;;;;;;;3.30;3.03;;;15.90;99.90;;;;;;4992430;28;20449;-67
2021/12/27 11:33:06;;;;;;;3.30;3.00;;;15.50;99.90;;;;;;4992465;28;20425;-67
2021/12/27 11:35:37;;;;;;;3.30;3.00;;;14.80;99.90;;;;;;4992036;28;20417;-66
2021/12/27 11:38:04;;;;;;;3.20;2.90;;;14.40;99.90;;;;;;4992354;28;20422;-68
2021/12/27 11:40:45;;;;;;;3.43;2.73;;;14.10;99.90;;;;;;4992532;28;20824;-67
2021/12/27 11:43:11;;;;;;;3.60;3.30;;;14.00;99.90;;;;;;4992261;28;20456;-66
2021/12/27 11:45:46;;;;;;;3.67;3.40;;;14.00;99.90;;;;;;4992041;28;20494;-67
2021/12/27 11:48:18;;;;;;;3.50;3.30;;;13.40;99.90;;;;;;4992322;28;20546;-67
2021/12/27 11:50:56;;;;;;;3.50;3.20;;;13.30;99.90;;;;;;4992143;28;20442;-68
2021/12/27 11:53:44;;;;;;;3.23;2.93;;;13.50;99.90;;;;;;4992340;28;20414;-67
2021/12/27 11:56:15;;;;;;;3.20;2.80;;;13.70;99.90;;;;;;4994428;28;20422;-68
2021/12/27 11:58:44;;;;;;;3.47;3.17;;;13.80;99.90;;;;;;4995919;28;20472;-67
2021/12/27 12:01:22;;;;;;;3.50;3.07;;;13.90;99.90;;;;;;4995900;28;20434;-66
2021/12/27 12:03:49;;;;;;;3.90;3.60;;;13.60;99.90;;;;;;4995812;28;20462;-67
2021/12/27 12:06:36;;;;;;;4.47;3.67;;;13.40;99.90;;;;;;4995613;28;20411;-67
2021/12/27 12:09:18;;;;;;;3.53;3.23;;;13.00;99.90;;;;;;4995742;28;20437;-67
2021/12/27 12:12:01;;;;;;;3.70;3.40;;;12.20;99.90;;;;;;4995741;28;20425;-67
2021/12/27 12:14:31;;;;;;;8.33;4.30;;;11.70;99.90;;;;;;4995466;28;20945;-66
2021/12/27 12:17:00;;;;;;;4.57;3.77;;;11.50;99.90;;;;;;4995422;28;20415;-66
2021/12/27 12:19:41;;;;;;;4.00;3.40;;;11.50;99.90;;;;;;4995365;28;20471;-66
2021/12/27 12:22:27;;;;;;;4.40;4.00;;;11.30;99.90;;;;;;4995457;28;20501;-67
2021/12/27 12:25:19;;;;;;;5.43;3.70;;;11.10;99.90;;;;;;4995404;28;20871;-67
2021/12/27 12:27:56;;;;;;;5.03;4.13;;;10.90;99.90;;;;;;4995479;28;20447;-67
2021/12/27 12:30:26;;;;;;;4.73;3.53;;;10.60;99.90;;;;;;4995260;28;20439;-67
2021/12/27 12:33:03;;;;;;;4.57;3.43;;;10.50;99.90;;;;;;4995326;28;20446;-67
2021/12/27 12:35:43;;;;;;;4.40;4.00;;;10.50;99.90;;;;;;4995050;28;20484;-66
2021/12/27 12:38:38;;;;;;;4.10;3.50;;;10.60;99.90;;;;;;4995267;28;20899;-66
2021/12/27 12:41:17;;;;;;;3.50;3.00;;;10.70;99.90;;;;;;4995262;28;20419;-67
2021/12/27 12:44:03;;;;;;;3.20;2.90;;;10.90;99.90;;;;;;4995103;28;20941;-67
2021/12/27 12:46:36;;;;;;;3.37;3.07;;;10.90;99.90;;;;;;4994758;28;20903;-67
2021/12/27 12:49:14;;;;;;;4.73;3.77;;;11.10;99.90;;;;;;4994956;28;20915;-67
2021/12/27 12:51:56;;;;;;;5.03;3.87;;;11.30;99.90;;;;;;4995051;28;20887;-68
2021/12/27 12:54:22;;;;;;;4.20;3.80;;;11.30;99.90;;;;;;4994995;28;20481;-66